AFL1040 UUEE-URSS
Flight info
| Callsign | AFL1040 |
|---|---|
| Flight time | 3h 23m |
| Altitude | 38998 |
| Route | TOGMO3H TOGMO M56 ABAGI B105 NATIT DCT MOLED N50 LIDUS G242 ZG DCT ITAKA DCT OBBUD DCT AMKOL DCT GOTIK DCT MEMZA DCT VENFO DCT BINOL BINOL1K |
| Aircraft | A359/H-SDE2E3GHIJ3J4J5LM1ORWXY/LB1D1 |
Departure
| Time | 2026-05-01 09:43 |
|---|---|
| Airport | Sheremetyevo International Airport (UUEE) |
Arrival
| Time | 2026-05-01 13:07 |
|---|---|
| Airport | Sochi International Airport (URSS) |
| Time | Latitude | Longitude | Altitude | Speed | Heading |
|---|---|---|---|---|---|
| 2026-05-01 09:11 | 55.97788 | 37.41331 | 645 ft | 0 kts | 253° |
| 2026-05-01 09:32 | 55.97790 | 37.41341 | 650 ft | 0 kts | 253° |
| 2026-05-01 09:33 | 55.97791 | 37.41348 | 649 ft | 1 kts | 253° |
| 2026-05-01 09:33 | 55.97794 | 37.41363 | 647 ft | 1 kts | 253° |
| 2026-05-01 09:33 | 55.97805 | 37.41396 | 648 ft | 2 kts | 220° |
| 2026-05-01 09:34 | 55.97818 | 37.41411 | 649 ft | 2 kts | 195° |
| 2026-05-01 09:34 | 55.97835 | 37.41414 | 648 ft | 2 kts | 169° |
| 2026-05-01 09:34 | 55.97837 | 37.41413 | 648 ft | 0 kts | 166° |
| 2026-05-01 09:37 | 55.97756 | 37.41446 | 645 ft | 12 kts | 165° |
| 2026-05-01 09:37 | 55.97687 | 37.41511 | 645 ft | 10 kts | 115° |
| 2026-05-01 09:38 | 55.97614 | 37.41718 | 645 ft | 9 kts | 76° |
| 2026-05-01 09:38 | 55.97635 | 37.41850 | 647 ft | 13 kts | 74° |
| 2026-05-01 09:38 | 55.97660 | 37.42018 | 645 ft | 16 kts | 76° |
| 2026-05-01 09:39 | 55.97727 | 37.42466 | 645 ft | 21 kts | 75° |
| 2026-05-01 09:39 | 55.97767 | 37.42738 | 648 ft | 24 kts | 76° |
| 2026-05-01 09:39 | 55.97802 | 37.42973 | 645 ft | 19 kts | 75° |
| 2026-05-01 09:40 | 55.97839 | 37.43220 | 648 ft | 22 kts | 75° |
| 2026-05-01 09:40 | 55.97924 | 37.43786 | 645 ft | 21 kts | 75° |
| 2026-05-01 09:40 | 55.97941 | 37.43962 | 645 ft | 12 kts | 105° |
| 2026-05-01 09:41 | 55.97875 | 37.44054 | 646 ft | 13 kts | 161° |
| 2026-05-01 09:41 | 55.97772 | 37.43955 | 646 ft | 0 kts | 254° |
| 2026-05-01 09:43 | 55.97454 | 37.41845 | 671 ft | 183 kts | 256° |
| 2026-05-01 09:43 | 55.97084 | 37.39328 | 1318 ft | 221 kts | 256° |
| 2026-05-01 09:43 | 55.96712 | 37.36777 | 2793 ft | 205 kts | 258° |
| 2026-05-01 09:44 | 55.96047 | 37.31444 | 3892 ft | 243 kts | 257° |
| 2026-05-01 09:44 | 55.95605 | 37.28467 | 4636 ft | 252 kts | 255° |
| 2026-05-01 09:44 | 55.95121 | 37.25442 | 5487 ft | 255 kts | 255° |
| 2026-05-01 09:45 | 55.94619 | 37.22364 | 6325 ft | 261 kts | 255° |
| 2026-05-01 09:45 | 55.93565 | 37.16047 | 7956 ft | 270 kts | 255° |
| 2026-05-01 09:45 | 55.93027 | 37.12825 | 8781 ft | 274 kts | 255° |
| 2026-05-01 09:46 | 55.92483 | 37.09584 | 9572 ft | 280 kts | 255° |
| 2026-05-01 09:46 | 55.91936 | 37.06224 | 10069 ft | 283 kts | 258° |
| 2026-05-01 09:46 | 55.91785 | 37.02760 | 10190 ft | 281 kts | 280° |
| 2026-05-01 09:46 | 55.92453 | 36.99565 | 10195 ft | 276 kts | 307° |
| 2026-05-01 09:47 | 55.93827 | 36.97241 | 10195 ft | 273 kts | 326° |
| 2026-05-01 09:47 | 55.95385 | 36.95277 | 10182 ft | 274 kts | 326° |
| 2026-05-01 09:47 | 55.96956 | 36.93359 | 10184 ft | 274 kts | 329° |
| 2026-05-01 09:47 | 55.98702 | 36.92067 | 10185 ft | 272 kts | 350° |
| 2026-05-01 09:48 | 56.00554 | 36.92137 | 10234 ft | 271 kts | 14° |
| 2026-05-01 09:48 | 56.02270 | 36.93525 | 10537 ft | 272 kts | 32° |
| 2026-05-01 09:48 | 56.03851 | 36.95399 | 11146 ft | 273 kts | 33° |
| 2026-05-01 09:48 | 56.05432 | 36.97266 | 12085 ft | 271 kts | 32° |
| 2026-05-01 09:49 | 56.06998 | 36.99100 | 13020 ft | 269 kts | 32° |
| 2026-05-01 09:49 | 56.08575 | 37.00944 | 13779 ft | 273 kts | 32° |
| 2026-05-01 09:49 | 56.10167 | 37.02833 | 14123 ft | 275 kts | 34° |
| 2026-05-01 09:49 | 56.11567 | 37.05162 | 14192 ft | 278 kts | 51° |
| 2026-05-01 09:50 | 56.12424 | 37.08270 | 14308 ft | 283 kts | 70° |
| 2026-05-01 09:50 | 56.12913 | 37.11696 | 14489 ft | 293 kts | 72° |
| 2026-05-01 09:50 | 56.13412 | 37.15324 | 14861 ft | 305 kts | 72° |
| 2026-05-01 09:50 | 56.13935 | 37.19050 | 15125 ft | 310 kts | 72° |
| 2026-05-01 09:51 | 56.14462 | 37.22796 | 15185 ft | 310 kts | 72° |
| 2026-05-01 09:51 | 56.14924 | 37.26576 | 15183 ft | 312 kts | 78° |
| 2026-05-01 09:51 | 56.14869 | 37.30508 | 15187 ft | 320 kts | 97° |
| 2026-05-01 09:51 | 56.14035 | 37.34241 | 15194 ft | 330 kts | 117° |
| 2026-05-01 09:52 | 56.12457 | 37.37304 | 15380 ft | 343 kts | 139° |
| 2026-05-01 09:52 | 56.10289 | 37.39215 | 15904 ft | 354 kts | 160° |
| 2026-05-01 09:52 | 56.07958 | 37.40516 | 16581 ft | 354 kts | 152° |
| 2026-05-01 09:52 | 56.05740 | 37.42411 | 17278 ft | 355 kts | 149° |
| 2026-05-01 09:53 | 56.03493 | 37.44317 | 17956 ft | 359 kts | 149° |
| 2026-05-01 09:53 | 56.01224 | 37.46212 | 18595 ft | 363 kts | 149° |
| 2026-05-01 09:53 | 55.98924 | 37.48133 | 19171 ft | 367 kts | 148° |
| 2026-05-01 09:53 | 55.96657 | 37.50236 | 19715 ft | 365 kts | 140° |
| 2026-05-01 09:54 | 55.94802 | 37.53178 | 20104 ft | 352 kts | 121° |
| 2026-05-01 09:54 | 55.93638 | 37.56900 | 20400 ft | 339 kts | 101° |
| 2026-05-01 09:54 | 55.93088 | 37.60879 | 21004 ft | 333 kts | 93° |
| 2026-05-01 09:54 | 55.92662 | 37.64937 | 21680 ft | 333 kts | 93° |
| 2026-05-01 09:55 | 55.92224 | 37.69008 | 22327 ft | 335 kts | 93° |
| 2026-05-01 09:55 | 55.91718 | 37.73084 | 22933 ft | 341 kts | 97° |
| 2026-05-01 09:55 | 55.90800 | 37.77053 | 23551 ft | 353 kts | 109° |
| 2026-05-01 09:55 | 55.89601 | 37.80922 | 24091 ft | 358 kts | 110° |
| 2026-05-01 09:56 | 55.88371 | 37.84810 | 24525 ft | 362 kts | 110° |
| 2026-05-01 09:56 | 55.87133 | 37.88744 | 24985 ft | 366 kts | 110° |
| 2026-05-01 09:56 | 55.85898 | 37.92676 | 25440 ft | 370 kts | 110° |
| 2026-05-01 09:56 | 55.84636 | 37.96697 | 25874 ft | 375 kts | 110° |
| 2026-05-01 09:57 | 55.83333 | 38.00778 | 26115 ft | 387 kts | 112° |
| 2026-05-01 09:57 | 55.81775 | 38.04815 | 26342 ft | 405 kts | 120° |
| 2026-05-01 09:57 | 55.79831 | 38.08590 | 26583 ft | 423 kts | 129° |
| 2026-05-01 09:57 | 55.77501 | 38.11944 | 26811 ft | 441 kts | 138° |
| 2026-05-01 09:58 | 55.74799 | 38.14740 | 27068 ft | 457 kts | 148° |
| 2026-05-01 09:58 | 55.71802 | 38.16809 | 27462 ft | 469 kts | 157° |
| 2026-05-01 09:58 | 55.68682 | 38.18380 | 27880 ft | 475 kts | 159° |
| 2026-05-01 09:58 | 55.65485 | 38.19932 | 28325 ft | 479 kts | 159° |
| 2026-05-01 09:59 | 55.62254 | 38.21524 | 28770 ft | 482 kts | 159° |
| 2026-05-01 09:59 | 55.59009 | 38.23136 | 29215 ft | 486 kts | 159° |
| 2026-05-01 09:59 | 55.55751 | 38.24758 | 29763 ft | 487 kts | 159° |
| 2026-05-01 09:59 | 55.52488 | 38.26382 | 30404 ft | 486 kts | 159° |
| 2026-05-01 10:00 | 55.49237 | 38.28001 | 30935 ft | 485 kts | 159° |
| 2026-05-01 10:00 | 55.46001 | 38.29611 | 31537 ft | 482 kts | 159° |
| 2026-05-01 10:00 | 55.42780 | 38.31212 | 32098 ft | 481 kts | 160° |
| 2026-05-01 10:00 | 55.39583 | 38.32803 | 32362 ft | 486 kts | 160° |
| 2026-05-01 10:01 | 55.36307 | 38.34431 | 32588 ft | 493 kts | 160° |
| 2026-05-01 10:01 | 55.32992 | 38.36074 | 32797 ft | 499 kts | 160° |
| 2026-05-01 10:01 | 55.29630 | 38.37735 | 33039 ft | 503 kts | 161° |
| 2026-05-01 10:01 | 55.26249 | 38.39403 | 33422 ft | 504 kts | 161° |
| 2026-05-01 10:02 | 55.22881 | 38.41060 | 33893 ft | 503 kts | 161° |
| 2026-05-01 10:02 | 55.19515 | 38.42714 | 34320 ft | 503 kts | 161° |
| 2026-05-01 10:02 | 55.16191 | 38.44345 | 34668 ft | 502 kts | 162° |
| 2026-05-01 10:02 | 55.12828 | 38.45993 | 35016 ft | 502 kts | 162° |
| 2026-05-01 10:03 | 55.09461 | 38.47639 | 35390 ft | 502 kts | 162° |
| 2026-05-01 10:03 | 55.06103 | 38.49279 | 35750 ft | 501 kts | 162° |
| 2026-05-01 10:03 | 55.02740 | 38.50918 | 36103 ft | 501 kts | 162° |
| 2026-05-01 10:03 | 54.99388 | 38.52549 | 36458 ft | 500 kts | 162° |
| 2026-05-01 10:04 | 54.96043 | 38.54174 | 36814 ft | 500 kts | 162° |
| 2026-05-01 10:04 | 54.92688 | 38.55801 | 37173 ft | 500 kts | 163° |
| 2026-05-01 10:04 | 54.89379 | 38.57404 | 37512 ft | 499 kts | 163° |
| 2026-05-01 10:04 | 54.86043 | 38.59016 | 37859 ft | 499 kts | 163° |
| 2026-05-01 10:05 | 54.82689 | 38.60635 | 38201 ft | 498 kts | 163° |
| 2026-05-01 10:05 | 54.79357 | 38.62248 | 38556 ft | 498 kts | 163° |
| 2026-05-01 10:05 | 54.76100 | 38.64234 | 38864 ft | 496 kts | 155° |
| 2026-05-01 10:05 | 54.73051 | 38.67006 | 39112 ft | 495 kts | 148° |
| 2026-05-01 10:06 | 54.67117 | 38.73232 | 39215 ft | 504 kts | 147° |
| 2026-05-01 10:06 | 54.61052 | 38.79559 | 39214 ft | 514 kts | 148° |
| 2026-05-01 10:07 | 54.54972 | 38.85879 | 39214 ft | 513 kts | 148° |
| 2026-05-01 10:07 | 54.48860 | 38.92199 | 39215 ft | 512 kts | 148° |
| 2026-05-01 10:08 | 54.40168 | 39.02739 | 39214 ft | 509 kts | 131° |
| 2026-05-01 10:09 | 54.36348 | 39.12719 | 39215 ft | 505 kts | 112° |
| 2026-05-01 10:09 | 54.33618 | 39.23822 | 39214 ft | 506 kts | 111° |
| 2026-05-01 10:10 | 54.30997 | 39.35005 | 39213 ft | 506 kts | 111° |
| 2026-05-01 10:10 | 54.26970 | 39.51694 | 39213 ft | 506 kts | 111° |
| 2026-05-01 10:11 | 54.24259 | 39.62741 | 39212 ft | 507 kts | 112° |
| 2026-05-01 10:11 | 54.21519 | 39.73845 | 39209 ft | 507 kts | 112° |
| 2026-05-01 10:12 | 54.19238 | 39.83055 | 39208 ft | 507 kts | 112° |
| 2026-05-01 10:13 | 54.14647 | 40.01486 | 39206 ft | 508 kts | 112° |
| 2026-05-01 10:13 | 54.11932 | 40.12592 | 39202 ft | 508 kts | 108° |
| 2026-05-01 10:14 | 54.08816 | 40.29853 | 39205 ft | 508 kts | 106° |
| 2026-05-01 10:14 | 54.06827 | 40.41374 | 39202 ft | 508 kts | 106° |
| 2026-05-01 10:15 | 54.04833 | 40.52818 | 39202 ft | 508 kts | 106° |
| 2026-05-01 10:15 | 54.02786 | 40.64442 | 39202 ft | 516 kts | 107° |
| 2026-05-01 10:16 | 54.00704 | 40.76168 | 39199 ft | 519 kts | 107° |
| 2026-05-01 10:17 | 53.97908 | 40.91789 | 39201 ft | 519 kts | 107° |
| 2026-05-01 10:17 | 53.94434 | 41.11282 | 39198 ft | 519 kts | 106° |
| 2026-05-01 10:18 | 53.91571 | 41.29024 | 39194 ft | 520 kts | 105° |
| 2026-05-01 10:19 | 53.89653 | 41.40788 | 39193 ft | 521 kts | 106° |
| 2026-05-01 10:19 | 53.87689 | 41.52588 | 39187 ft | 521 kts | 106° |
| 2026-05-01 10:20 | 53.85045 | 41.68291 | 39187 ft | 521 kts | 107° |
| 2026-05-01 10:20 | 53.83043 | 41.80097 | 39182 ft | 521 kts | 107° |
| 2026-05-01 10:21 | 53.79676 | 41.99680 | 39180 ft | 522 kts | 107° |
| 2026-05-01 10:22 | 53.76953 | 42.15354 | 39180 ft | 522 kts | 107° |
| 2026-05-01 10:23 | 53.73865 | 42.32985 | 39174 ft | 522 kts | 107° |
| 2026-05-01 10:23 | 53.70377 | 42.52484 | 39162 ft | 522 kts | 110° |
| 2026-05-01 10:24 | 53.67716 | 42.61554 | 39168 ft | 519 kts | 125° |
| 2026-05-01 10:24 | 53.62793 | 42.70291 | 39167 ft | 515 kts | 145° |
| 2026-05-01 10:25 | 53.56525 | 42.75986 | 39162 ft | 512 kts | 158° |
| 2026-05-01 10:25 | 53.49957 | 42.80662 | 39157 ft | 512 kts | 159° |
| 2026-05-01 10:26 | 53.43427 | 42.85233 | 39157 ft | 512 kts | 158° |
| 2026-05-01 10:27 | 53.30309 | 42.94570 | 39154 ft | 512 kts | 158° |
| 2026-05-01 10:28 | 53.20524 | 43.01537 | 39147 ft | 512 kts | 158° |
| 2026-05-01 10:28 | 53.10707 | 43.08516 | 39151 ft | 511 kts | 158° |
| 2026-05-01 10:29 | 53.00978 | 43.15785 | 39146 ft | 511 kts | 157° |
| 2026-05-01 10:30 | 52.88044 | 43.25396 | 39141 ft | 511 kts | 158° |
| 2026-05-01 10:31 | 52.75058 | 43.34926 | 39137 ft | 510 kts | 158° |
| 2026-05-01 10:32 | 52.65371 | 43.41997 | 39134 ft | 510 kts | 158° |
| 2026-05-01 10:33 | 52.52387 | 43.51423 | 39128 ft | 510 kts | 158° |
| 2026-05-01 10:34 | 52.42654 | 43.58448 | 39125 ft | 510 kts | 158° |
| 2026-05-01 10:34 | 52.36199 | 43.63089 | 39125 ft | 510 kts | 158° |
| 2026-05-01 10:35 | 52.26458 | 43.70064 | 39122 ft | 509 kts | 159° |
| 2026-05-01 10:35 | 52.19968 | 43.74692 | 39123 ft | 509 kts | 159° |
| 2026-05-01 10:36 | 52.10277 | 43.81576 | 39122 ft | 508 kts | 159° |
| 2026-05-01 10:37 | 52.03797 | 43.86160 | 39122 ft | 508 kts | 159° |
| 2026-05-01 10:37 | 51.94076 | 43.93011 | 39122 ft | 508 kts | 159° |
| 2026-05-01 10:38 | 51.87593 | 43.97561 | 39124 ft | 507 kts | 159° |
| 2026-05-01 10:38 | 51.81161 | 44.02061 | 39123 ft | 507 kts | 159° |
| 2026-05-01 10:39 | 51.74686 | 44.06577 | 39123 ft | 507 kts | 159° |
| 2026-05-01 10:39 | 51.68200 | 44.11088 | 39122 ft | 507 kts | 160° |
| 2026-05-01 10:40 | 51.61729 | 44.15573 | 39123 ft | 507 kts | 160° |
| 2026-05-01 10:40 | 51.55300 | 44.20016 | 39126 ft | 506 kts | 160° |
| 2026-05-01 10:41 | 51.48822 | 44.24479 | 39126 ft | 506 kts | 160° |
| 2026-05-01 10:42 | 51.39124 | 44.31133 | 39123 ft | 505 kts | 160° |
| 2026-05-01 10:42 | 51.32698 | 44.35526 | 39127 ft | 505 kts | 160° |
| 2026-05-01 10:43 | 51.26234 | 44.39931 | 39128 ft | 505 kts | 160° |
| 2026-05-01 10:43 | 51.19755 | 44.44261 | 39119 ft | 503 kts | 163° |
| 2026-05-01 10:44 | 51.12985 | 44.46474 | 39125 ft | 494 kts | 181° |
| 2026-05-01 10:44 | 51.06147 | 44.46159 | 39134 ft | 491 kts | 186° |
| 2026-05-01 10:45 | 50.99375 | 44.45452 | 39130 ft | 490 kts | 187° |
| 2026-05-01 10:45 | 50.92565 | 44.44742 | 39134 ft | 490 kts | 186° |
| 2026-05-01 10:46 | 50.85761 | 44.44087 | 39136 ft | 490 kts | 186° |
| 2026-05-01 10:46 | 50.78973 | 44.43457 | 39137 ft | 489 kts | 186° |
| 2026-05-01 10:47 | 50.72184 | 44.42832 | 39138 ft | 488 kts | 186° |
| 2026-05-01 10:47 | 50.65443 | 44.42210 | 39139 ft | 488 kts | 186° |
| 2026-05-01 10:48 | 50.58673 | 44.41587 | 39142 ft | 487 kts | 186° |
| 2026-05-01 10:48 | 50.51914 | 44.40966 | 39141 ft | 487 kts | 186° |
| 2026-05-01 10:49 | 50.45151 | 44.40346 | 39142 ft | 486 kts | 186° |
| 2026-05-01 10:49 | 50.38435 | 44.39732 | 39138 ft | 486 kts | 186° |
| 2026-05-01 10:50 | 50.31693 | 44.39119 | 39138 ft | 486 kts | 186° |
| 2026-05-01 10:50 | 50.24942 | 44.38506 | 39141 ft | 485 kts | 186° |
| 2026-05-01 10:51 | 50.18205 | 44.37897 | 39142 ft | 485 kts | 187° |
| 2026-05-01 10:51 | 50.11529 | 44.37294 | 39144 ft | 484 kts | 187° |
| 2026-05-01 10:52 | 50.04794 | 44.36688 | 39139 ft | 484 kts | 187° |
| 2026-05-01 10:52 | 49.98084 | 44.36085 | 39139 ft | 483 kts | 187° |
| 2026-05-01 10:53 | 49.91374 | 44.35485 | 39142 ft | 483 kts | 187° |
| 2026-05-01 10:53 | 49.84672 | 44.34887 | 39142 ft | 482 kts | 187° |
| 2026-05-01 10:54 | 49.78011 | 44.34293 | 39143 ft | 482 kts | 187° |
| 2026-05-01 10:54 | 49.71317 | 44.33699 | 39144 ft | 482 kts | 187° |
| 2026-05-01 10:55 | 49.64634 | 44.33108 | 39147 ft | 481 kts | 187° |
| 2026-05-01 10:55 | 49.57927 | 44.33076 | 39147 ft | 486 kts | 177° |
| 2026-05-01 10:56 | 49.51393 | 44.35782 | 39144 ft | 495 kts | 163° |
| 2026-05-01 10:56 | 49.45005 | 44.39802 | 39143 ft | 497 kts | 162° |
| 2026-05-01 10:57 | 49.38639 | 44.43947 | 39146 ft | 496 kts | 162° |
| 2026-05-01 10:57 | 49.32311 | 44.48004 | 39152 ft | 496 kts | 162° |
| 2026-05-01 10:58 | 49.25929 | 44.52040 | 39147 ft | 496 kts | 162° |
| 2026-05-01 10:58 | 49.19551 | 44.56051 | 39149 ft | 496 kts | 162° |
| 2026-05-01 10:59 | 49.13169 | 44.60055 | 39145 ft | 496 kts | 162° |
| 2026-05-01 10:59 | 49.06782 | 44.64053 | 39156 ft | 496 kts | 162° |
| 2026-05-01 11:00 | 49.00433 | 44.68017 | 39152 ft | 496 kts | 162° |
| 2026-05-01 11:00 | 48.94047 | 44.71993 | 39147 ft | 496 kts | 163° |
| 2026-05-01 11:01 | 48.87656 | 44.75961 | 39153 ft | 496 kts | 163° |
| 2026-05-01 11:01 | 48.81544 | 44.81022 | 39159 ft | 507 kts | 149° |
| 2026-05-01 11:02 | 48.75954 | 44.87453 | 39153 ft | 509 kts | 147° |
| 2026-05-01 11:02 | 48.70397 | 44.94111 | 39153 ft | 510 kts | 147° |
| 2026-05-01 11:03 | 48.64820 | 45.00760 | 39155 ft | 510 kts | 147° |
| 2026-05-01 11:03 | 48.59233 | 45.07353 | 39154 ft | 510 kts | 147° |
| 2026-05-01 11:04 | 48.53632 | 45.13924 | 39153 ft | 510 kts | 147° |
| 2026-05-01 11:04 | 48.48056 | 45.20446 | 39158 ft | 510 kts | 147° |
| 2026-05-01 11:05 | 48.42444 | 45.26986 | 39159 ft | 510 kts | 148° |
| 2026-05-01 11:05 | 48.36422 | 45.32405 | 39155 ft | 502 kts | 158° |
| 2026-05-01 11:06 | 48.30210 | 45.37036 | 39157 ft | 502 kts | 159° |
| 2026-05-01 11:06 | 48.23929 | 45.41593 | 39158 ft | 502 kts | 159° |
| 2026-05-01 11:07 | 48.14500 | 45.48448 | 39161 ft | 502 kts | 159° |
| 2026-05-01 11:07 | 48.08224 | 45.53019 | 39164 ft | 503 kts | 159° |
| 2026-05-01 11:08 | 48.01931 | 45.57593 | 39161 ft | 503 kts | 159° |
| 2026-05-01 11:09 | 47.92520 | 45.64408 | 39167 ft | 504 kts | 159° |
| 2026-05-01 11:09 | 47.86215 | 45.68957 | 39168 ft | 504 kts | 159° |
| 2026-05-01 11:10 | 47.76747 | 45.75765 | 39167 ft | 504 kts | 159° |
| 2026-05-01 11:10 | 47.70469 | 45.80265 | 39165 ft | 504 kts | 159° |
| 2026-05-01 11:11 | 47.64145 | 45.84785 | 39166 ft | 504 kts | 160° |
| 2026-05-01 11:11 | 47.57819 | 45.89295 | 39161 ft | 504 kts | 160° |
| 2026-05-01 11:12 | 47.51501 | 45.93786 | 39161 ft | 504 kts | 160° |
| 2026-05-01 11:12 | 47.45226 | 45.98236 | 39157 ft | 504 kts | 160° |
| 2026-05-01 11:13 | 47.38905 | 46.02706 | 39160 ft | 503 kts | 160° |
| 2026-05-01 11:13 | 47.32584 | 46.07176 | 39154 ft | 503 kts | 160° |
| 2026-05-01 11:14 | 47.26280 | 46.11631 | 39158 ft | 503 kts | 160° |
| 2026-05-01 11:14 | 47.19963 | 46.16082 | 39165 ft | 503 kts | 160° |
| 2026-05-01 11:15 | 47.13697 | 46.20485 | 39166 ft | 503 kts | 160° |
| 2026-05-01 11:15 | 47.07503 | 46.25322 | 39160 ft | 510 kts | 150° |
| 2026-05-01 11:16 | 47.02321 | 46.32554 | 39155 ft | 524 kts | 131° |
| 2026-05-01 11:16 | 46.98272 | 46.41481 | 39155 ft | 527 kts | 127° |
| 2026-05-01 11:17 | 46.94414 | 46.50529 | 39153 ft | 527 kts | 127° |
| 2026-05-01 11:17 | 46.90506 | 46.59604 | 39151 ft | 527 kts | 127° |
| 2026-05-01 11:18 | 46.86561 | 46.68632 | 39152 ft | 526 kts | 127° |
| 2026-05-01 11:18 | 46.82613 | 46.77601 | 39150 ft | 526 kts | 127° |
| 2026-05-01 11:19 | 46.78675 | 46.86517 | 39147 ft | 525 kts | 127° |
| 2026-05-01 11:19 | 46.74709 | 46.95472 | 39150 ft | 525 kts | 127° |
| 2026-05-01 11:20 | 46.70754 | 47.04377 | 39143 ft | 524 kts | 127° |
| 2026-05-01 11:20 | 46.66823 | 47.13269 | 39143 ft | 525 kts | 127° |
| 2026-05-01 11:21 | 46.62926 | 47.22242 | 39141 ft | 525 kts | 127° |
| 2026-05-01 11:21 | 46.59022 | 47.31214 | 39138 ft | 525 kts | 127° |
| 2026-05-01 11:22 | 46.55103 | 47.40163 | 39132 ft | 525 kts | 127° |
| 2026-05-01 11:22 | 46.51169 | 47.49104 | 39133 ft | 525 kts | 127° |
| 2026-05-01 11:23 | 46.47262 | 47.57954 | 39133 ft | 525 kts | 127° |
| 2026-05-01 11:23 | 46.43315 | 47.66866 | 39125 ft | 525 kts | 127° |
| 2026-05-01 11:24 | 46.39358 | 47.75771 | 39129 ft | 525 kts | 127° |
| 2026-05-01 11:25 | 46.33442 | 47.89036 | 39127 ft | 525 kts | 127° |
| 2026-05-01 11:25 | 46.28048 | 48.02839 | 39126 ft | 534 kts | 113° |
| 2026-05-01 11:26 | 46.25338 | 48.18498 | 39128 ft | 539 kts | 105° |
| 2026-05-01 11:27 | 46.23776 | 48.29096 | 39124 ft | 539 kts | 105° |
| 2026-05-01 11:27 | 46.22183 | 48.39681 | 39124 ft | 539 kts | 106° |
| 2026-05-01 11:28 | 46.19851 | 48.49833 | 39121 ft | 530 kts | 121° |
| 2026-05-01 11:28 | 46.15564 | 48.58241 | 39115 ft | 515 kts | 142° |
| 2026-05-01 11:29 | 46.09793 | 48.63889 | 39051 ft | 498 kts | 161° |
| 2026-05-01 11:29 | 46.06563 | 48.65596 | 38539 ft | 490 kts | 171° |
| 2026-05-01 11:29 | 45.99951 | 48.68060 | 38118 ft | 492 kts | 171° |
| 2026-05-01 11:30 | 45.96619 | 48.69274 | 38119 ft | 493 kts | 171° |
| 2026-05-01 11:30 | 45.89976 | 48.71785 | 38122 ft | 494 kts | 170° |
| 2026-05-01 11:31 | 45.83404 | 48.74380 | 38129 ft | 494 kts | 169° |
| 2026-05-01 11:31 | 45.76793 | 48.77025 | 38123 ft | 494 kts | 169° |
| 2026-05-01 11:32 | 45.70163 | 48.79678 | 38106 ft | 494 kts | 171° |
| 2026-05-01 11:32 | 45.63530 | 48.82314 | 38124 ft | 495 kts | 171° |
| 2026-05-01 11:33 | 45.56890 | 48.84941 | 38124 ft | 495 kts | 171° |
| 2026-05-01 11:33 | 45.50303 | 48.87542 | 38120 ft | 495 kts | 171° |
| 2026-05-01 11:34 | 45.43667 | 48.90157 | 38121 ft | 495 kts | 171° |
| 2026-05-01 11:34 | 45.37043 | 48.92762 | 38117 ft | 494 kts | 171° |
| 2026-05-01 11:35 | 45.30450 | 48.95348 | 38123 ft | 494 kts | 171° |
| 2026-05-01 11:35 | 45.23835 | 48.97937 | 38118 ft | 493 kts | 171° |
| 2026-05-01 11:36 | 45.17221 | 49.00518 | 38115 ft | 493 kts | 171° |
| 2026-05-01 11:36 | 45.10628 | 49.03085 | 38120 ft | 492 kts | 171° |
| 2026-05-01 11:37 | 45.04022 | 49.05652 | 38119 ft | 492 kts | 170° |
| 2026-05-01 11:37 | 44.97472 | 49.08190 | 38115 ft | 491 kts | 170° |
| 2026-05-01 11:38 | 44.90869 | 49.10743 | 38119 ft | 491 kts | 170° |
| 2026-05-01 11:38 | 44.84278 | 49.13285 | 38115 ft | 491 kts | 170° |
| 2026-05-01 11:39 | 44.77728 | 49.15805 | 38114 ft | 491 kts | 170° |
| 2026-05-01 11:39 | 44.71159 | 49.18327 | 38119 ft | 490 kts | 170° |
| 2026-05-01 11:40 | 44.64571 | 49.20851 | 38124 ft | 490 kts | 171° |
| 2026-05-01 11:40 | 44.58004 | 49.23360 | 38117 ft | 490 kts | 171° |
| 2026-05-01 11:41 | 44.51462 | 49.25853 | 38110 ft | 490 kts | 171° |
| 2026-05-01 11:41 | 44.44885 | 49.28355 | 38112 ft | 489 kts | 171° |
| 2026-05-01 11:42 | 44.38322 | 49.30844 | 38109 ft | 489 kts | 171° |
| 2026-05-01 11:42 | 44.31746 | 49.33334 | 38109 ft | 489 kts | 171° |
| 2026-05-01 11:43 | 44.25227 | 49.35796 | 38105 ft | 489 kts | 171° |
| 2026-05-01 11:43 | 44.18663 | 49.38269 | 38109 ft | 488 kts | 171° |
| 2026-05-01 11:44 | 44.08813 | 49.41970 | 38106 ft | 488 kts | 171° |
| 2026-05-01 11:44 | 44.02262 | 49.44424 | 38105 ft | 488 kts | 171° |
| 2026-05-01 11:45 | 43.95656 | 49.46383 | 38102 ft | 480 kts | 180° |
| 2026-05-01 11:45 | 43.89150 | 49.45865 | 38105 ft | 467 kts | 197° |
| 2026-05-01 11:46 | 43.83213 | 49.42602 | 38104 ft | 456 kts | 214° |
| 2026-05-01 11:46 | 43.78399 | 49.37031 | 38102 ft | 450 kts | 231° |
| 2026-05-01 11:47 | 43.75066 | 49.29755 | 38097 ft | 448 kts | 246° |
| 2026-05-01 11:47 | 43.73477 | 49.21498 | 38096 ft | 451 kts | 262° |
| 2026-05-01 11:48 | 43.73762 | 49.12812 | 38091 ft | 458 kts | 278° |
| 2026-05-01 11:48 | 43.75689 | 49.04380 | 38092 ft | 463 kts | 286° |
| 2026-05-01 11:49 | 43.77953 | 48.96025 | 38086 ft | 463 kts | 285° |
| 2026-05-01 11:49 | 43.79231 | 48.87457 | 38087 ft | 455 kts | 270° |
| 2026-05-01 11:50 | 43.78760 | 48.78775 | 38086 ft | 452 kts | 259° |
| 2026-05-01 11:50 | 43.77703 | 48.70188 | 38081 ft | 452 kts | 258° |
| 2026-05-01 11:51 | 43.76575 | 48.61638 | 38078 ft | 453 kts | 258° |
| 2026-05-01 11:51 | 43.75464 | 48.53055 | 38079 ft | 453 kts | 258° |
| 2026-05-01 11:52 | 43.74364 | 48.44478 | 38070 ft | 453 kts | 258° |
| 2026-05-01 11:52 | 43.73266 | 48.35951 | 38071 ft | 454 kts | 258° |
| 2026-05-01 11:53 | 43.72155 | 48.27365 | 38070 ft | 454 kts | 258° |
| 2026-05-01 11:53 | 43.71035 | 48.18762 | 38067 ft | 454 kts | 258° |
| 2026-05-01 11:54 | 43.69910 | 48.10175 | 38064 ft | 455 kts | 258° |
| 2026-05-01 11:54 | 43.68784 | 48.01628 | 38063 ft | 455 kts | 258° |
| 2026-05-01 11:55 | 43.67643 | 47.93027 | 38057 ft | 455 kts | 258° |
| 2026-05-01 11:55 | 43.66496 | 47.84430 | 38048 ft | 455 kts | 258° |
| 2026-05-01 11:56 | 43.65341 | 47.75824 | 38044 ft | 456 kts | 258° |
| 2026-05-01 11:56 | 43.64189 | 47.67286 | 38040 ft | 456 kts | 257° |
| 2026-05-01 11:57 | 43.63021 | 47.58688 | 38036 ft | 456 kts | 257° |
| 2026-05-01 11:57 | 43.61848 | 47.50094 | 38037 ft | 456 kts | 257° |
| 2026-05-01 11:58 | 43.60924 | 47.41426 | 38034 ft | 457 kts | 262° |
| 2026-05-01 11:59 | 43.60012 | 47.28409 | 38023 ft | 457 kts | 262° |
| 2026-05-01 11:59 | 43.59328 | 47.19695 | 38019 ft | 457 kts | 261° |
| 2026-05-01 12:00 | 43.58220 | 47.06634 | 38008 ft | 457 kts | 261° |
| 2026-05-01 12:01 | 43.57097 | 46.93648 | 37998 ft | 457 kts | 261° |
| 2026-05-01 12:01 | 43.56339 | 46.84934 | 37992 ft | 458 kts | 261° |
| 2026-05-01 12:02 | 43.55574 | 46.76214 | 37991 ft | 458 kts | 261° |
| 2026-05-01 12:02 | 43.54822 | 46.67724 | 37978 ft | 458 kts | 261° |
| 2026-05-01 12:03 | 43.54037 | 46.58937 | 37976 ft | 459 kts | 261° |
| 2026-05-01 12:03 | 43.53251 | 46.50207 | 37973 ft | 459 kts | 261° |
| 2026-05-01 12:04 | 43.52458 | 46.41480 | 37962 ft | 459 kts | 261° |
| 2026-05-01 12:04 | 43.51658 | 46.32757 | 37960 ft | 459 kts | 261° |
| 2026-05-01 12:05 | 43.50852 | 46.24029 | 37961 ft | 459 kts | 261° |
| 2026-05-01 12:05 | 43.49637 | 46.11027 | 37954 ft | 459 kts | 261° |
| 2026-05-01 12:06 | 43.49216 | 46.02258 | 37962 ft | 461 kts | 271° |
| 2026-05-01 12:06 | 43.49816 | 45.93464 | 37953 ft | 461 kts | 274° |
| 2026-05-01 12:07 | 43.50555 | 45.84747 | 37964 ft | 461 kts | 274° |
| 2026-05-01 12:07 | 43.51300 | 45.75985 | 37962 ft | 461 kts | 274° |
| 2026-05-01 12:08 | 43.52023 | 45.67202 | 37962 ft | 461 kts | 274° |
| 2026-05-01 12:08 | 43.52729 | 45.58438 | 37962 ft | 460 kts | 273° |
| 2026-05-01 12:09 | 43.53422 | 45.49728 | 37959 ft | 460 kts | 273° |
| 2026-05-01 12:09 | 43.54114 | 45.40962 | 37954 ft | 460 kts | 273° |
| 2026-05-01 12:10 | 43.55140 | 45.27807 | 37958 ft | 461 kts | 273° |
| 2026-05-01 12:11 | 43.56152 | 45.14627 | 37963 ft | 461 kts | 273° |
| 2026-05-01 12:11 | 43.56815 | 45.05895 | 37968 ft | 461 kts | 273° |
| 2026-05-01 12:12 | 43.57473 | 44.97113 | 37968 ft | 461 kts | 273° |
| 2026-05-01 12:12 | 43.58128 | 44.88315 | 37977 ft | 461 kts | 272° |
| 2026-05-01 12:13 | 43.58770 | 44.79582 | 37980 ft | 461 kts | 272° |
| 2026-05-01 12:13 | 43.59410 | 44.70787 | 37983 ft | 461 kts | 272° |
| 2026-05-01 12:14 | 43.60042 | 44.62001 | 37986 ft | 460 kts | 272° |
| 2026-05-01 12:14 | 43.60667 | 44.53220 | 37984 ft | 460 kts | 272° |
| 2026-05-01 12:15 | 43.61286 | 44.44430 | 37990 ft | 459 kts | 272° |
| 2026-05-01 12:15 | 43.61892 | 44.35725 | 37988 ft | 459 kts | 272° |
| 2026-05-01 12:16 | 43.62496 | 44.26951 | 37984 ft | 459 kts | 272° |
| 2026-05-01 12:16 | 43.63092 | 44.18187 | 37989 ft | 459 kts | 272° |
| 2026-05-01 12:17 | 43.63658 | 44.09414 | 37982 ft | 458 kts | 270° |
| 2026-05-01 12:17 | 43.63914 | 44.00681 | 37988 ft | 458 kts | 269° |
| 2026-05-01 12:18 | 43.64086 | 43.91892 | 37989 ft | 458 kts | 269° |
| 2026-05-01 12:18 | 43.64297 | 43.83101 | 37984 ft | 459 kts | 269° |
| 2026-05-01 12:19 | 43.64534 | 43.74295 | 37980 ft | 459 kts | 269° |
| 2026-05-01 12:19 | 43.64770 | 43.65526 | 37988 ft | 460 kts | 269° |
| 2026-05-01 12:20 | 43.65000 | 43.56699 | 37997 ft | 460 kts | 269° |
| 2026-05-01 12:20 | 43.65221 | 43.47863 | 37996 ft | 461 kts | 269° |
| 2026-05-01 12:21 | 43.65435 | 43.39017 | 37992 ft | 461 kts | 269° |
| 2026-05-01 12:21 | 43.65644 | 43.30156 | 37982 ft | 462 kts | 269° |
| 2026-05-01 12:22 | 43.65845 | 43.21298 | 37978 ft | 462 kts | 269° |
| 2026-05-01 12:22 | 43.66038 | 43.12477 | 37967 ft | 463 kts | 268° |
| 2026-05-01 12:23 | 43.66226 | 43.03602 | 37968 ft | 463 kts | 268° |
| 2026-05-01 12:23 | 43.66407 | 42.94707 | 37963 ft | 463 kts | 268° |
| 2026-05-01 12:24 | 43.66581 | 42.85832 | 37941 ft | 463 kts | 268° |
| 2026-05-01 12:24 | 43.66747 | 42.76995 | 37950 ft | 463 kts | 268° |
| 2026-05-01 12:25 | 43.66986 | 42.63651 | 37935 ft | 463 kts | 268° |
| 2026-05-01 12:26 | 43.67141 | 42.54788 | 37927 ft | 462 kts | 268° |
| 2026-05-01 12:26 | 43.67348 | 42.41549 | 37923 ft | 461 kts | 268° |
| 2026-05-01 12:27 | 43.67541 | 42.28275 | 37920 ft | 460 kts | 268° |
| 2026-05-01 12:28 | 43.67723 | 42.15031 | 37927 ft | 459 kts | 268° |
| 2026-05-01 12:29 | 43.67887 | 42.01859 | 37923 ft | 459 kts | 268° |
| 2026-05-01 12:29 | 43.68035 | 41.88611 | 37929 ft | 460 kts | 268° |
| 2026-05-01 12:30 | 43.68170 | 41.75365 | 37942 ft | 460 kts | 268° |
| 2026-05-01 12:31 | 43.68254 | 41.66585 | 37950 ft | 461 kts | 268° |
| 2026-05-01 12:31 | 43.68328 | 41.57732 | 37943 ft | 460 kts | 268° |
| 2026-05-01 12:32 | 43.68394 | 41.48909 | 37938 ft | 460 kts | 268° |
| 2026-05-01 12:32 | 43.68482 | 41.35689 | 37941 ft | 461 kts | 268° |
| 2026-05-01 12:33 | 43.68535 | 41.26846 | 37933 ft | 461 kts | 268° |
| 2026-05-01 12:33 | 43.68577 | 41.17992 | 37938 ft | 460 kts | 268° |
| 2026-05-01 12:34 | 43.68614 | 41.09155 | 37944 ft | 460 kts | 267° |
| 2026-05-01 12:34 | 43.68641 | 41.00326 | 37895 ft | 456 kts | 267° |
| 2026-05-01 12:35 | 43.68657 | 40.96048 | 37275 ft | 451 kts | 267° |
| 2026-05-01 12:35 | 43.68671 | 40.91720 | 36355 ft | 444 kts | 266° |
| 2026-05-01 12:35 | 43.68685 | 40.87524 | 35044 ft | 434 kts | 266° |
| 2026-05-01 12:35 | 43.68703 | 40.83366 | 33380 ft | 436 kts | 266° |
| 2026-05-01 12:36 | 43.68721 | 40.79170 | 32097 ft | 435 kts | 266° |
| 2026-05-01 12:36 | 43.68738 | 40.74986 | 31219 ft | 435 kts | 266° |
| 2026-05-01 12:36 | 43.68754 | 40.70815 | 30337 ft | 435 kts | 266° |
| 2026-05-01 12:36 | 43.68770 | 40.66670 | 29358 ft | 438 kts | 266° |
| 2026-05-01 12:37 | 43.68785 | 40.62472 | 28475 ft | 437 kts | 266° |
| 2026-05-01 12:37 | 43.68797 | 40.58297 | 27844 ft | 430 kts | 266° |
| 2026-05-01 12:37 | 43.68809 | 40.54206 | 27216 ft | 423 kts | 266° |
| 2026-05-01 12:37 | 43.68819 | 40.50180 | 26564 ft | 417 kts | 266° |
| 2026-05-01 12:38 | 43.68828 | 40.46187 | 25928 ft | 412 kts | 266° |
| 2026-05-01 12:38 | 43.68833 | 40.42288 | 25309 ft | 409 kts | 265° |
| 2026-05-01 12:38 | 43.68837 | 40.38336 | 24664 ft | 405 kts | 265° |
| 2026-05-01 12:38 | 43.68840 | 40.34500 | 24042 ft | 402 kts | 265° |
| 2026-05-01 12:39 | 43.68841 | 40.30651 | 23408 ft | 400 kts | 265° |
| 2026-05-01 12:39 | 43.68842 | 40.26816 | 22712 ft | 396 kts | 265° |
| 2026-05-01 12:39 | 43.68842 | 40.23040 | 22099 ft | 392 kts | 265° |
| 2026-05-01 12:39 | 43.68823 | 40.19296 | 21476 ft | 386 kts | 264° |
| 2026-05-01 12:40 | 43.68478 | 40.15694 | 20915 ft | 374 kts | 252° |
| 2026-05-01 12:40 | 43.67537 | 40.12381 | 20323 ft | 366 kts | 239° |
| 2026-05-01 12:40 | 43.66078 | 40.09598 | 19779 ft | 361 kts | 226° |
| 2026-05-01 12:40 | 43.64119 | 40.07343 | 19461 ft | 376 kts | 214° |
| 2026-05-01 12:41 | 43.61739 | 40.05759 | 19161 ft | 386 kts | 201° |
| 2026-05-01 12:41 | 43.59186 | 40.04644 | 18742 ft | 385 kts | 202° |
| 2026-05-01 12:41 | 43.56735 | 40.03249 | 18309 ft | 380 kts | 206° |
| 2026-05-01 12:41 | 43.54315 | 40.01745 | 17879 ft | 378 kts | 206° |
| 2026-05-01 12:42 | 43.51935 | 40.00261 | 17495 ft | 375 kts | 206° |
| 2026-05-01 12:42 | 43.49559 | 39.98777 | 17114 ft | 374 kts | 206° |
| 2026-05-01 12:42 | 43.47199 | 39.97303 | 16747 ft | 372 kts | 206° |
| 2026-05-01 12:42 | 43.44801 | 39.95920 | 16358 ft | 373 kts | 202° |
| 2026-05-01 12:43 | 43.42353 | 39.94776 | 15990 ft | 373 kts | 200° |
| 2026-05-01 12:43 | 43.39927 | 39.93681 | 15619 ft | 372 kts | 200° |
| 2026-05-01 12:43 | 43.37472 | 39.92568 | 15259 ft | 371 kts | 200° |
| 2026-05-01 12:43 | 43.35029 | 39.91458 | 14892 ft | 370 kts | 200° |
| 2026-05-01 12:44 | 43.32604 | 39.90357 | 14517 ft | 369 kts | 200° |
| 2026-05-01 12:44 | 43.30169 | 39.89252 | 14157 ft | 368 kts | 200° |
| 2026-05-01 12:44 | 43.25319 | 39.87051 | 13388 ft | 366 kts | 200° |
| 2026-05-01 12:45 | 43.20548 | 39.84887 | 12755 ft | 354 kts | 200° |
| 2026-05-01 12:45 | 43.18272 | 39.83860 | 12528 ft | 337 kts | 200° |
| 2026-05-01 12:45 | 43.16100 | 39.82879 | 12289 ft | 322 kts | 200° |
| 2026-05-01 12:46 | 43.14013 | 39.81936 | 12021 ft | 309 kts | 200° |
| 2026-05-01 12:46 | 43.12005 | 39.81029 | 11782 ft | 297 kts | 200° |
| 2026-05-01 12:46 | 43.10110 | 39.80174 | 11376 ft | 278 kts | 200° |
| 2026-05-01 12:46 | 43.08311 | 39.79357 | 10870 ft | 264 kts | 200° |
| 2026-05-01 12:47 | 43.06641 | 39.78271 | 10641 ft | 269 kts | 215° |
| 2026-05-01 12:47 | 43.05374 | 39.76417 | 10413 ft | 269 kts | 238° |
| 2026-05-01 12:47 | 43.04769 | 39.74028 | 10187 ft | 273 kts | 259° |
| 2026-05-01 12:47 | 43.04905 | 39.71449 | 9888 ft | 282 kts | 282° |
| 2026-05-01 12:48 | 43.05680 | 39.68966 | 9603 ft | 284 kts | 291° |
| 2026-05-01 12:48 | 43.06745 | 39.66692 | 9245 ft | 286 kts | 306° |
| 2026-05-01 12:48 | 43.08265 | 39.64948 | 8381 ft | 289 kts | 327° |
| 2026-05-01 12:48 | 43.10216 | 39.64190 | 7418 ft | 298 kts | 355° |
| 2026-05-01 12:49 | 43.12232 | 39.64765 | 6523 ft | 300 kts | 25° |
| 2026-05-01 12:49 | 43.13885 | 39.66461 | 5654 ft | 296 kts | 43° |
| 2026-05-01 12:49 | 43.15369 | 39.68372 | 4901 ft | 289 kts | 43° |
| 2026-05-01 12:49 | 43.16866 | 39.70080 | 4355 ft | 281 kts | 32° |
| 2026-05-01 12:50 | 43.18718 | 39.70981 | 3834 ft | 278 kts | 5° |
| 2026-05-01 12:50 | 43.20576 | 39.70714 | 3314 ft | 271 kts | 339° |
| 2026-05-01 12:50 | 43.22209 | 39.69520 | 2807 ft | 264 kts | 323° |
| 2026-05-01 12:50 | 43.23526 | 39.67827 | 2313 ft | 255 kts | 309° |
| 2026-05-01 12:51 | 43.24629 | 39.65972 | 2040 ft | 248 kts | 307° |
| 2026-05-01 12:51 | 43.25695 | 39.64093 | 1994 ft | 250 kts | 307° |
| 2026-05-01 12:51 | 43.27791 | 39.60349 | 2004 ft | 248 kts | 307° |
| 2026-05-01 12:52 | 43.28833 | 39.58471 | 2001 ft | 247 kts | 307° |
| 2026-05-01 12:52 | 43.31210 | 39.55145 | 1999 ft | 248 kts | 329° |
| 2026-05-01 12:52 | 43.32843 | 39.54387 | 2002 ft | 250 kts | 352° |
| 2026-05-01 12:53 | 43.35979 | 39.56141 | 1992 ft | 258 kts | 49° |
| 2026-05-01 12:53 | 43.36732 | 39.58369 | 1996 ft | 263 kts | 78° |
| 2026-05-01 12:53 | 43.36583 | 39.60802 | 2007 ft | 249 kts | 107° |
| 2026-05-01 12:54 | 43.35866 | 39.62834 | 2008 ft | 231 kts | 122° |
| 2026-05-01 12:54 | 43.34251 | 39.66301 | 1995 ft | 200 kts | 122° |
| 2026-05-01 12:54 | 43.33524 | 39.67872 | 2010 ft | 191 kts | 122° |
| 2026-05-01 12:55 | 43.32122 | 39.70945 | 2003 ft | 190 kts | 122° |
| 2026-05-01 12:55 | 43.31348 | 39.72414 | 1991 ft | 190 kts | 128° |
| 2026-05-01 12:55 | 43.30567 | 39.73882 | 1987 ft | 191 kts | 124° |
| 2026-05-01 12:56 | 43.29866 | 39.75429 | 1991 ft | 191 kts | 119° |
| 2026-05-01 12:56 | 43.29225 | 39.77026 | 1991 ft | 191 kts | 122° |
| 2026-05-01 12:56 | 43.28471 | 39.78525 | 1990 ft | 191 kts | 127° |
| 2026-05-01 12:56 | 43.27790 | 39.80073 | 1978 ft | 186 kts | 115° |
| 2026-05-01 12:57 | 43.27781 | 39.81679 | 2007 ft | 166 kts | 62° |
| 2026-05-01 12:57 | 43.29360 | 39.83841 | 2015 ft | 157 kts | 27° |
| 2026-05-01 12:57 | 43.30277 | 39.84549 | 2005 ft | 149 kts | 28° |
| 2026-05-01 12:58 | 43.31164 | 39.85230 | 2003 ft | 141 kts | 27° |
| 2026-05-01 12:58 | 43.31986 | 39.85851 | 2008 ft | 132 kts | 26° |
| 2026-05-01 12:58 | 43.32778 | 39.86449 | 2003 ft | 132 kts | 26° |
| 2026-05-01 12:59 | 43.34399 | 39.87671 | 1907 ft | 134 kts | 26° |
| 2026-05-01 12:59 | 43.35213 | 39.88284 | 1745 ft | 133 kts | 26° |
| 2026-05-01 12:59 | 43.36814 | 39.89488 | 1417 ft | 130 kts | 26° |
| 2026-05-01 13:00 | 43.38405 | 39.90683 | 1088 ft | 130 kts | 24° |
| 2026-05-01 13:00 | 43.39190 | 39.91273 | 902 ft | 128 kts | 25° |
| 2026-05-01 13:01 | 43.40764 | 39.92443 | 670 ft | 130 kts | 24° |
| 2026-05-01 13:01 | 43.41560 | 39.93033 | 476 ft | 130 kts | 27° |
| 2026-05-01 13:01 | 43.43132 | 39.94230 | 175 ft | 129 kts | 29° |
| 2026-05-01 13:02 | 43.43915 | 39.94816 | 83 ft | 121 kts | 30° |
| 2026-05-01 13:07 | 43.44891 | 39.94528 | 90 ft | 0 kts | 298° |